createdAt,value
2018-09-15T00:01:54.191Z,68.91
2018-09-15T00:04:22.661Z,69.06
2018-09-15T00:06:51.170Z,69.12
2018-09-15T00:09:19.925Z,69.01
2018-09-15T00:11:48.442Z,68.91
2018-09-15T00:14:17.609Z,68.99
2018-09-15T00:16:47.074Z,69.00
2018-09-15T00:19:15.518Z,69.28
2018-09-15T00:21:44.275Z,69.23
2018-09-15T00:24:12.790Z,69.13
2018-09-15T00:26:41.333Z,69.15
2018-09-15T00:29:09.813Z,69.18
2018-09-15T00:31:38.333Z,69.12
2018-09-15T00:34:07.144Z,69.07
2018-09-15T00:36:35.805Z,69.01
2018-09-15T00:39:06.922Z,69.10
2018-09-15T00:41:35.607Z,69.29
2018-09-15T00:44:04.042Z,69.16
2018-09-15T00:46:32.665Z,69.39
2018-09-15T00:49:01.388Z,69.18
2018-09-15T00:51:29.856Z,69.19
2018-09-15T00:53:58.385Z,69.20
2018-09-15T00:56:26.837Z,69.35
2018-09-15T00:58:55.305Z,69.25
2018-09-15T01:01:24.083Z,69.40
2018-09-15T01:03:52.536Z,69.64
2018-09-15T01:06:21.049Z,69.53
2018-09-15T01:08:49.813Z,69.47
2018-09-15T01:11:18.265Z,69.76
2018-09-15T01:13:46.799Z,69.76
2018-09-15T01:16:15.429Z,69.59
2018-09-15T01:18:44.950Z,69.72
2018-09-15T01:21:13.427Z,69.93
2018-09-15T01:23:42.336Z,69.76
2018-09-15T01:26:10.910Z,69.55
2018-09-15T01:28:49.169Z,69.55
2018-09-15T01:31:17.830Z,69.70
2018-09-15T01:33:46.274Z,69.58
2018-09-15T01:36:15.287Z,69.66
2018-09-15T01:38:43.762Z,69.75
2018-09-15T01:41:12.238Z,69.76
2018-09-15T01:43:40.885Z,69.82
2018-09-15T01:46:09.371Z,69.87
2018-09-15T01:48:37.838Z,69.89
2018-09-15T01:51:06.749Z,70.00
2018-09-15T01:53:35.221Z,70.02
2018-09-15T01:56:03.740Z,70.10
2018-09-15T01:58:32.249Z,70.12
2018-09-15T02:01:00.685Z,69.88
2018-09-15T02:03:29.578Z,70.08
2018-09-15T02:05:58.354Z,70.08
2018-09-15T02:08:26.891Z,70.08
2018-09-15T02:10:55.340Z,70.15
2018-09-15T02:13:24.213Z,70.10
2018-09-15T02:15:52.885Z,70.07
2018-09-15T02:18:21.338Z,70.04
2018-09-15T02:20:50.089Z,70.05
2018-09-15T02:23:18.562Z,70.31
2018-09-15T02:25:47.146Z,70.12
2018-09-15T02:28:16.137Z,70.33
2018-09-15T02:30:44.566Z,70.31
2018-09-15T02:33:13.096Z,70.22
2018-09-15T02:35:41.785Z,70.36
2018-09-15T02:38:10.214Z,70.21
2018-09-15T02:40:38.665Z,70.20
2018-09-15T02:43:07.679Z,70.43
2018-09-15T02:45:36.153Z,70.39
2018-09-15T02:48:04.599Z,70.44
2018-09-15T02:50:33.592Z,70.49
2018-09-15T02:53:02.070Z,70.56
2018-09-15T02:55:30.507Z,70.64
2018-09-15T02:57:59.017Z,70.91
2018-09-15T03:00:27.477Z,70.81
2018-09-15T03:02:55.911Z,71.04
2018-09-15T03:05:25.195Z,70.97
2018-09-15T03:07:53.761Z,71.06
2018-09-15T03:10:22.209Z,71.04
2018-09-15T03:12:50.883Z,71.15
2018-09-15T03:15:19.652Z,71.21
2018-09-15T03:17:49.155Z,71.15
2018-09-15T03:20:18.003Z,71.40
2018-09-15T03:22:46.601Z,71.43
2018-09-15T03:25:15.055Z,71.52
2018-09-15T03:27:43.878Z,71.72
2018-09-15T03:30:12.438Z,71.84
2018-09-15T03:32:40.888Z,71.77
2018-09-15T03:35:09.446Z,71.85
2018-09-15T03:37:38.164Z,71.38
2018-09-15T03:40:06.953Z,71.59
2018-09-15T03:42:36.981Z,71.43
2018-09-15T03:45:05.645Z,71.50
2018-09-15T03:47:34.083Z,71.48
2018-09-15T03:50:02.975Z,71.42
2018-09-15T03:52:31.477Z,71.51
2018-09-15T03:55:00.129Z,71.49
2018-09-15T03:57:28.817Z,71.50
2018-09-15T03:59:57.334Z,71.34
2018-09-15T04:02:25.738Z,71.43
2018-09-15T04:04:54.869Z,71.40
2018-09-15T04:07:23.660Z,71.33
2018-09-15T04:09:52.083Z,71.60
2018-09-15T04:12:20.825Z,71.92
2018-09-15T04:14:49.277Z,72.18
2018-09-15T04:17:17.825Z,72.31
2018-09-15T04:19:47.154Z,72.45
2018-09-15T04:22:15.635Z,72.63
2018-09-15T04:24:44.085Z,72.55
2018-09-15T04:27:12.607Z,72.67
2018-09-15T04:29:41.075Z,72.50
2018-09-15T04:32:09.849Z,72.63
2018-09-15T04:34:38.359Z,72.83
2018-09-15T04:37:07.001Z,72.87
2018-09-15T04:39:35.641Z,73.19
2018-09-15T04:42:04.425Z,73.35
2018-09-15T04:44:32.881Z,73.77
2018-09-15T04:47:01.365Z,73.47
2018-09-15T04:49:30.277Z,73.82
2018-09-15T04:51:58.748Z,73.80
2018-09-15T04:54:27.204Z,73.82
2018-09-15T04:56:56.529Z,73.94
2018-09-15T04:59:25.038Z,74.20
2018-09-15T05:01:53.472Z,74.54
2018-09-15T05:04:22.085Z,75.13
2018-09-15T05:06:50.949Z,75.27
2018-09-15T05:09:19.561Z,75.62
2018-09-15T05:11:48.362Z,75.74
2018-09-15T05:14:16.838Z,76.42
2018-09-15T05:16:45.269Z,76.55
2018-09-15T05:19:14.108Z,76.66
2018-09-15T05:21:43.064Z,76.97
2018-09-15T05:24:11.545Z,77.00
2018-09-15T05:26:40.187Z,77.22
2018-09-15T05:29:08.636Z,77.36
2018-09-15T05:31:37.169Z,77.77
2018-09-15T05:34:05.734Z,77.73
2018-09-15T05:36:34.272Z,77.92
2018-09-15T05:39:02.890Z,78.12
2018-09-15T05:41:31.478Z,78.34
2018-09-15T05:43:59.929Z,78.39
2018-09-15T05:46:28.350Z,78.40
2018-09-15T05:48:57.216Z,78.29
2018-09-15T05:51:25.950Z,78.68
2018-09-15T05:53:54.370Z,78.77
2018-09-15T05:56:23.253Z,78.96
2018-09-15T05:58:51.777Z,78.84
2018-09-15T06:01:20.257Z,78.93
2018-09-15T06:03:49.685Z,79.42
2018-09-15T06:06:18.517Z,79.07
2018-09-15T06:08:47.027Z,79.33
2018-09-15T06:11:15.843Z,79.50
2018-09-15T06:13:44.379Z,79.76
2018-09-15T06:16:12.789Z,80.36
2018-09-15T06:18:42.045Z,80.28
2018-09-15T06:21:10.503Z,80.10
2018-09-15T06:23:39.639Z,80.23
2018-09-15T06:26:08.471Z,80.58
2018-09-15T06:28:36.994Z,80.51
2018-09-15T06:31:05.474Z,80.24
2018-09-15T06:33:34.017Z,80.46
2018-09-15T06:36:02.488Z,80.47
2018-09-15T06:38:30.919Z,79.97
2018-09-15T06:40:59.589Z,80.35
2018-09-15T06:43:28.079Z,80.18
2018-09-15T06:45:56.578Z,80.07
2018-09-15T06:48:25.090Z,79.97
2018-09-15T06:50:53.556Z,79.67
2018-09-15T06:53:22.423Z,79.67
2018-09-15T06:55:51.091Z,79.54
2018-09-15T06:58:19.736Z,79.34
2018-09-15T07:00:49.418Z,79.29
2018-09-15T07:03:18.071Z,79.23
2018-09-15T07:05:46.607Z,79.33
2018-09-15T07:08:15.086Z,79.53
2018-09-15T07:10:43.719Z,79.29
2018-09-15T07:13:12.532Z,78.83
2018-09-15T07:15:41.596Z,78.91
2018-09-15T07:18:10.126Z,78.66
2018-09-15T07:20:38.610Z,78.29
2018-09-15T07:23:07.082Z,77.84
2018-09-15T07:25:35.913Z,77.18
2018-09-15T07:28:04.594Z,76.80
2018-09-15T07:30:33.018Z,76.71
2018-09-15T07:33:01.987Z,76.70
2018-09-15T07:35:30.469Z,76.67
2018-09-15T07:37:58.906Z,76.27
2018-09-15T07:40:27.417Z,76.12
2018-09-15T07:42:55.890Z,76.00
2018-09-15T07:45:24.336Z,75.60
2018-09-15T07:47:53.079Z,75.56
2018-09-15T07:50:21.669Z,75.73
2018-09-15T07:52:50.397Z,75.70
2018-09-15T07:55:19.169Z,74.92
2018-09-15T07:57:48.393Z,74.17
2018-09-15T08:00:16.798Z,74.05
2018-09-15T08:02:45.597Z,73.85
2018-09-15T08:05:14.100Z,73.37
2018-09-15T08:07:42.517Z,73.03
2018-09-15T08:10:11.030Z,72.58
2018-09-15T08:12:39.502Z,72.60
2018-09-15T08:15:08.105Z,72.11
2018-09-15T08:17:36.721Z,71.62
2018-09-15T08:20:05.259Z,70.55
2018-09-15T08:22:33.847Z,69.92
2018-09-15T08:25:02.537Z,70.03
2018-09-15T08:27:31.419Z,69.13
2018-09-15T08:29:59.890Z,68.79
2018-09-15T08:32:28.876Z,68.13
2018-09-15T08:34:57.607Z,67.46
2018-09-15T08:37:26.077Z,66.00
2018-09-15T08:39:54.581Z,64.81
2018-09-15T08:42:23.114Z,64.03
2018-09-15T08:44:51.700Z,63.27
2018-09-15T08:47:20.681Z,63.50
2018-09-15T08:49:49.698Z,61.93
2018-09-15T08:52:19.090Z,61.10
2018-09-15T08:54:47.881Z,59.30
2018-09-15T08:57:19.143Z,60.07
2018-09-15T08:59:47.669Z,60.28
2018-09-15T09:02:16.501Z,60.17
2018-09-15T09:04:45.781Z,60.32
2018-09-15T09:07:14.235Z,59.75
2018-09-15T09:09:42.849Z,60.10
2018-09-15T09:12:11.360Z,58.70
2018-09-15T09:14:39.784Z,57.92
2018-09-15T09:17:08.519Z,59.06
2018-09-15T09:19:36.986Z,56.48
2018-09-15T09:22:05.560Z,57.19
2018-09-15T09:24:37.783Z,56.34
2018-09-15T09:29:50.492Z,55.93
2018-09-15T09:32:21.106Z,55.81
2018-09-15T09:34:51.249Z,55.99
2018-09-15T09:37:21.211Z,57.15
2018-09-15T09:39:51.437Z,57.25
2018-09-15T09:42:21.789Z,56.90
2018-09-15T09:44:50.887Z,57.12
2018-09-15T09:47:20.985Z,55.46
2018-09-15T09:49:50.702Z,53.49
2018-09-15T09:52:21.223Z,53.12
2018-09-15T09:54:53.958Z,51.42
2018-09-15T09:57:24.105Z,50.25
2018-09-15T09:59:53.302Z,49.50
2018-09-15T10:02:23.192Z,49.74
2018-09-15T10:04:53.596Z,49.13
2018-09-15T10:07:22.267Z,49.26
2018-09-15T10:09:50.709Z,48.08
2018-09-15T10:12:19.874Z,48.46
2018-09-15T10:14:49.217Z,48.39
2018-09-15T10:17:17.803Z,47.07
2018-09-15T10:19:46.310Z,47.86
2018-09-15T10:22:15.178Z,47.42
2018-09-15T10:24:43.628Z,47.79
2018-09-15T10:27:12.165Z,47.79
2018-09-15T10:29:40.689Z,45.98
2018-09-15T10:32:09.636Z,45.27
2018-09-15T10:34:38.075Z,46.18
2018-09-15T10:37:06.803Z,46.41
2018-09-15T10:39:35.249Z,46.96
2018-09-15T10:42:03.736Z,46.89
2018-09-15T10:44:32.270Z,47.46
2018-09-15T10:47:00.705Z,47.87
2018-09-15T10:49:29.173Z,48.80
2018-09-15T10:51:57.959Z,47.98
2018-09-15T10:54:26.405Z,47.19
2018-09-15T10:56:54.953Z,47.77
2018-09-15T10:59:23.744Z,48.11
2018-09-15T11:01:52.209Z,47.92
2018-09-15T11:04:20.768Z,48.41
2018-09-15T11:06:49.404Z,48.40
2018-09-15T11:09:18.082Z,47.20
2018-09-15T11:11:46.564Z,47.01
2018-09-15T11:14:15.072Z,46.77
2018-09-15T11:16:43.507Z,46.95
2018-09-15T11:19:12.173Z,47.29
2018-09-15T11:21:40.866Z,46.51
2018-09-15T11:24:09.289Z,45.94
2018-09-15T11:26:37.890Z,44.67
2018-09-15T11:29:06.559Z,44.68
2018-09-15T11:31:34.993Z,44.54
2018-09-15T11:34:04.059Z,44.70
2018-09-15T11:36:32.509Z,45.19
2018-09-15T11:39:00.973Z,45.18
2018-09-15T11:41:29.421Z,45.24
2018-09-15T11:43:57.954Z,44.68
2018-09-15T11:46:26.387Z,44.77
2018-09-15T11:48:54.894Z,44.49
2018-09-15T11:51:23.567Z,43.91
2018-09-15T11:53:52.063Z,43.35
2018-09-15T11:56:20.574Z,42.98
2018-09-15T11:58:50.039Z,43.78
2018-09-15T12:01:18.985Z,44.04
2018-09-15T12:03:48.145Z,43.60
2018-09-15T12:06:16.644Z,43.25
2018-09-15T12:08:45.088Z,43.34
2018-09-15T12:11:13.566Z,44.71
2018-09-15T12:13:42.105Z,44.98
2018-09-15T12:16:11.042Z,44.94
2018-09-15T12:18:39.537Z,45.21
2018-09-15T12:21:08.362Z,45.13
2018-09-15T12:23:36.788Z,45.38
2018-09-15T12:26:05.248Z,45.14
2018-09-15T12:28:36.730Z,43.70
2018-09-15T12:31:05.990Z,42.01
2018-09-15T12:33:34.588Z,41.11
2018-09-15T12:36:03.097Z,40.95
2018-09-15T12:38:31.565Z,41.03
2018-09-15T12:41:00.137Z,40.55
2018-09-15T12:43:28.578Z,39.85
2018-09-15T12:45:57.059Z,38.64
2018-09-15T12:48:25.822Z,36.44
2018-09-15T12:50:54.257Z,37.02
2018-09-15T12:53:23.362Z,36.32
2018-09-15T12:55:52.141Z,36.60
2018-09-15T12:58:20.579Z,37.33
2018-09-15T13:00:49.043Z,36.53
2018-09-15T13:03:17.993Z,36.52
2018-09-15T13:05:46.596Z,37.97
2018-09-15T13:08:15.114Z,40.44
2018-09-15T13:10:43.729Z,41.02
2018-09-15T13:13:12.185Z,41.26
2018-09-15T13:15:40.693Z,42.10
2018-09-15T13:18:09.381Z,41.82
2018-09-15T13:20:37.869Z,40.55
2018-09-15T13:23:06.546Z,40.03
2018-09-15T13:25:35.065Z,40.00
2018-09-15T13:28:03.530Z,38.72
2018-09-15T13:30:32.008Z,37.22
2018-09-15T13:33:00.890Z,37.37
2018-09-15T13:35:29.346Z,37.28
2018-09-15T13:37:59.269Z,37.79
2018-09-15T13:40:27.849Z,37.93
2018-09-15T13:42:56.270Z,38.04
2018-09-15T13:45:24.840Z,37.66
2018-09-15T13:47:53.375Z,36.79
2018-09-15T13:50:21.817Z,37.36
2018-09-15T13:52:50.413Z,36.96
2018-09-15T13:55:19.012Z,38.32
2018-09-15T13:57:47.486Z,37.37
2018-09-15T14:00:15.973Z,36.29
2018-09-15T14:02:44.883Z,36.02
2018-09-15T14:05:14.496Z,35.43
2018-09-15T14:07:43.422Z,34.14
2018-09-15T14:10:18.928Z,32.84
2018-09-15T14:12:41.346Z,31.39
2018-09-15T14:15:09.825Z,30.65
2018-09-15T14:17:38.463Z,29.54
2018-09-15T14:20:06.981Z,28.47
2018-09-15T14:22:35.465Z,28.31
2018-09-15T14:25:04.524Z,29.16
2018-09-15T14:27:33.082Z,29.26
2018-09-15T14:30:01.574Z,30.13
2018-09-15T14:32:30.523Z,29.76
2018-09-15T14:34:59.054Z,32.07
2018-09-15T14:37:27.957Z,33.24
2018-09-15T14:39:56.861Z,35.02
2018-09-15T14:42:25.338Z,36.84
2018-09-15T14:44:53.800Z,38.10
2018-09-15T14:47:22.318Z,37.49
2018-09-15T14:49:50.845Z,36.79
2018-09-15T14:52:19.343Z,34.76
2018-09-15T14:54:47.920Z,33.44
2018-09-15T14:57:16.356Z,32.03
2018-09-15T14:59:44.952Z,32.95
2018-09-15T15:02:13.659Z,32.21
2018-09-15T15:04:42.096Z,32.66
2018-09-15T15:07:10.582Z,31.67
2018-09-15T15:09:39.093Z,30.98
2018-09-15T15:12:07.541Z,30.79
2018-09-15T15:14:36.018Z,30.96
2018-09-15T15:17:04.611Z,30.20
2018-09-15T15:19:33.040Z,31.17
2018-09-15T15:22:01.499Z,32.36
2018-09-15T15:24:30.147Z,32.91
2018-09-15T15:26:58.829Z,34.10
2018-09-15T15:29:27.489Z,35.34
2018-09-15T15:31:56.118Z,37.02
2018-09-15T15:34:24.887Z,37.82
2018-09-15T15:36:53.366Z,38.53
2018-09-15T15:39:22.099Z,39.07
2018-09-15T15:41:50.582Z,39.38
2018-09-15T15:44:19.061Z,39.88
2018-09-15T15:46:47.641Z,39.91
2018-09-15T15:49:16.129Z,39.87
2018-09-15T15:51:44.830Z,40.52
2018-09-15T15:54:13.345Z,40.43
2018-09-15T15:56:41.777Z,40.56
2018-09-15T15:59:10.275Z,41.08
2018-09-15T16:01:38.889Z,41.69
2018-09-15T16:04:07.321Z,41.62
2018-09-15T16:06:35.806Z,42.12
2018-09-15T16:09:04.961Z,42.01
2018-09-15T16:11:33.413Z,42.24
2018-09-15T16:14:02.162Z,41.71
2018-09-15T16:16:30.709Z,42.35
2018-09-15T16:18:59.136Z,42.18
2018-09-15T16:21:27.593Z,42.33
2018-09-15T16:24:02.941Z,42.30
2018-09-15T16:26:31.698Z,42.84
2018-09-15T16:29:00.302Z,43.22
2018-09-15T16:31:29.848Z,43.49
2018-09-15T16:33:58.514Z,43.87
2018-09-15T16:36:27.138Z,44.11
2018-09-15T16:38:55.658Z,44.39
2018-09-15T16:41:24.137Z,44.52
2018-09-15T16:43:53.190Z,44.73
2018-09-15T16:46:22.051Z,45.60
2018-09-15T16:48:51.090Z,45.15
2018-09-15T16:51:19.543Z,45.83
2018-09-15T16:53:48.009Z,45.69
2018-09-15T16:56:16.461Z,45.65
2018-09-15T16:58:44.881Z,46.10
2018-09-15T17:01:13.721Z,46.47
2018-09-15T17:03:42.201Z,46.47
2018-09-15T17:06:10.669Z,46.97
2018-09-15T17:08:39.217Z,47.07
2018-09-15T17:11:09.470Z,46.98
2018-09-15T17:13:38.382Z,47.58
2018-09-15T17:16:06.905Z,47.43
2018-09-15T17:18:35.580Z,47.71
2018-09-15T17:21:04.218Z,47.93
2018-09-15T17:23:32.702Z,48.15
2018-09-15T17:26:01.633Z,48.23
2018-09-15T17:28:30.085Z,48.44
2018-09-15T17:30:58.966Z,48.49
2018-09-15T17:33:28.122Z,48.59
2018-09-15T17:35:56.922Z,48.80
2018-09-15T17:38:26.009Z,48.84
2018-09-15T17:40:54.671Z,48.94
2018-09-15T17:43:23.116Z,48.99
2018-09-15T17:45:51.902Z,48.96
2018-09-15T17:48:20.803Z,49.03
2018-09-15T17:50:49.585Z,49.10
2018-09-15T17:53:18.137Z,49.28
2018-09-15T17:55:46.734Z,49.46
2018-09-15T17:58:15.173Z,49.43
2018-09-15T18:00:43.626Z,49.53
2018-09-15T18:03:12.732Z,49.56
2018-09-15T18:05:41.158Z,49.67
2018-09-15T18:08:09.604Z,50.10
2018-09-15T18:10:38.427Z,50.11
2018-09-15T18:13:06.962Z,50.29
2018-09-15T18:15:35.402Z,50.42
2018-09-15T18:18:04.557Z,50.59
2018-09-15T18:20:33.017Z,50.65
2018-09-15T18:23:01.459Z,50.85
2018-09-15T18:25:30.050Z,50.98
2018-09-15T18:27:58.543Z,51.13
2018-09-15T18:30:27.955Z,51.17
2018-09-15T18:32:56.769Z,51.05
2018-09-15T18:35:25.197Z,51.39
2018-09-15T18:37:53.658Z,51.56
2018-09-15T18:40:22.475Z,51.80
2018-09-15T18:42:50.956Z,51.78
2018-09-15T18:45:19.406Z,52.05
2018-09-15T18:47:48.375Z,52.05
2018-09-15T18:50:16.798Z,51.87
2018-09-15T18:52:45.244Z,52.13
2018-09-15T18:55:14.029Z,52.29
2018-09-15T18:57:42.449Z,52.42
2018-09-15T19:00:10.909Z,52.57
2018-09-15T19:02:39.549Z,52.88
2018-09-15T19:05:08.010Z,52.82
2018-09-15T19:07:36.460Z,52.80
2018-09-15T19:10:05.113Z,52.89
2018-09-15T19:12:33.649Z,52.98
2018-09-15T19:15:02.081Z,53.08
2018-09-15T19:17:30.717Z,53.36
2018-09-15T19:19:59.163Z,53.52
2018-09-15T19:22:27.586Z,53.47
2018-09-15T19:24:56.421Z,53.69
2018-09-15T19:27:24.866Z,53.75
2018-09-15T19:29:53.301Z,53.78
2018-09-15T19:32:21.938Z,53.90
2018-09-15T19:34:50.495Z,53.87
2018-09-15T19:37:18.933Z,54.34
2018-09-15T19:39:47.579Z,54.48
2018-09-15T19:42:16.210Z,54.60
2018-09-15T19:44:44.741Z,54.72
2018-09-15T19:47:13.296Z,54.93
2018-09-15T19:49:41.758Z,55.08
2018-09-15T19:52:10.384Z,55.22
2018-09-15T19:54:38.941Z,55.74
2018-09-15T19:57:07.408Z,56.22
2018-09-15T19:59:35.852Z,56.33
2018-09-15T20:02:05.153Z,56.55
2018-09-15T20:04:33.921Z,56.61
2018-09-15T20:07:02.339Z,57.01
2018-09-15T20:09:31.005Z,57.14
2018-09-15T20:11:59.953Z,57.77
2018-09-15T20:14:29.210Z,57.85
2018-09-15T20:16:56.641Z,57.85
2018-09-15T20:19:23.945Z,58.12
2018-09-15T20:21:51.217Z,58.53
2018-09-15T20:24:19.789Z,59.18
2018-09-15T20:26:48.218Z,59.18
2018-09-15T20:29:16.665Z,59.79
2018-09-15T20:31:45.381Z,59.86
2018-09-15T20:34:13.813Z,60.15
2018-09-15T20:36:42.593Z,60.37
2018-09-15T20:39:12.521Z,60.40
2018-09-15T20:41:41.289Z,60.64
2018-09-15T20:44:09.950Z,60.56
2018-09-15T20:46:38.525Z,60.63
2018-09-15T20:49:07.137Z,60.73
2018-09-15T20:51:35.829Z,61.02
2018-09-15T20:54:04.401Z,61.17
2018-09-15T20:56:32.913Z,60.96
2018-09-15T20:59:01.345Z,61.11
2018-09-15T21:01:30.566Z,61.07
2018-09-15T21:03:59.522Z,61.23
2018-09-15T21:06:28.201Z,61.40
2018-09-15T21:08:56.756Z,61.52
2018-09-15T21:11:25.191Z,61.73
2018-09-15T21:13:53.650Z,61.72
2018-09-15T21:16:22.341Z,61.59
2018-09-15T21:18:50.773Z,61.89
2018-09-15T21:21:19.229Z,61.49
2018-09-15T21:23:48.065Z,61.54
2018-09-15T21:26:16.493Z,61.46
2018-09-15T21:28:44.921Z,61.73
2018-09-15T21:31:13.621Z,61.50
2018-09-15T21:33:42.079Z,61.74
2018-09-15T21:36:10.529Z,61.86
2018-09-15T21:38:39.705Z,62.27
2018-09-15T21:41:08.145Z,62.26
2018-09-15T21:43:36.658Z,61.91
2018-09-15T21:46:05.536Z,62.17
2018-09-15T21:48:33.962Z,62.46
2018-09-15T21:51:02.517Z,62.07
2018-09-15T21:53:31.177Z,62.49
2018-09-15T21:55:59.668Z,62.36
2018-09-15T21:58:28.105Z,62.68
2018-09-15T22:01:02.621Z,62.60
2018-09-15T22:03:31.221Z,62.73
2018-09-15T22:06:00.149Z,62.58
2018-09-15T22:08:29.064Z,62.80
2018-09-15T22:10:57.546Z,63.17
2018-09-15T22:13:25.981Z,62.99
2018-09-15T22:15:54.791Z,63.34
2018-09-15T22:18:23.213Z,63.02
2018-09-15T22:20:51.672Z,63.54
2018-09-15T22:23:20.812Z,63.04
2018-09-15T22:25:49.305Z,63.50
2018-09-15T22:28:17.746Z,63.50
2018-09-15T22:30:46.558Z,63.54
2018-09-15T22:33:15.006Z,63.89
2018-09-15T22:35:43.624Z,64.09
2018-09-15T22:38:12.409Z,64.47
2018-09-15T22:40:41.002Z,64.02
2018-09-15T22:43:09.428Z,64.37
2018-09-15T22:45:38.497Z,64.18
2018-09-15T22:48:07.298Z,64.47
2018-09-15T22:50:35.776Z,64.46
2018-09-15T22:53:05.285Z,64.32
2018-09-15T22:55:33.765Z,64.45
2018-09-15T22:58:02.217Z,64.71
2018-09-15T23:00:32.016Z,65.09
2018-09-15T23:03:01.433Z,64.92
2018-09-15T23:05:30.113Z,64.96
2018-09-15T23:07:59.840Z,65.45
2018-09-15T23:10:28.685Z,65.03
2018-09-15T23:12:58.665Z,65.43
2018-09-15T23:15:27.702Z,65.24
2018-09-15T23:17:56.310Z,65.66
2018-09-15T23:20:25.126Z,65.59
2018-09-15T23:22:54.797Z,65.96
2018-09-15T23:25:23.225Z,65.69
2018-09-15T23:27:51.936Z,65.79
2018-09-15T23:30:20.634Z,66.52
2018-09-15T23:32:49.049Z,66.12
2018-09-15T23:35:17.489Z,66.28
2018-09-15T23:37:46.280Z,66.49
2018-09-15T23:40:14.721Z,66.32
2018-09-15T23:42:43.513Z,66.86
2018-09-15T23:45:12.454Z,66.99
2018-09-15T23:47:40.890Z,66.70
2018-09-15T23:50:09.952Z,66.99
2018-09-15T23:52:39.017Z,67.38
2018-09-15T23:55:07.663Z,67.48
2018-09-15T23:57:36.089Z,67.09
